Time;durP1;ratioP1;P1;durP2;ratioP2;P2;SDS_P1;SDS_P2;PMS_P1;PMS_P2;Temp;Humidity;BMP_temperature;BMP_pressure;BME280_temperature;BME280_humidity;BME280_pressure;Samples;Min_cycle;Max_cycle;Signal;HPM_P1;HPM_P2
2021/01/30 00:06:57;;;;;;;0.87;0.70;;;;;;;;;;5053266;28;20406;-79
2021/01/30 00:09:24;;;;;;;1.90;0.60;;;;;;;;;;5035152;28;20437;-79
2021/01/30 00:11:52;;;;;;;2.57;0.40;;;;;;;;;;5053194;28;20422;-79
2021/01/30 00:14:26;;;;;;;1.37;0.70;;;;;;;;;;5053166;28;20419;-79
2021/01/30 00:16:54;;;;;;;2.60;0.70;;;;;;;;;;5053263;28;20410;-79
2021/01/30 00:19:20;;;;;;;0.60;0.60;;;;;;;;;;5052974;28;20411;-79
2021/01/30 00:21:50;;;;;;;1.53;0.50;;;;;;;;;;5052849;28;20288;-79
2021/01/30 00:24:16;;;;;;;2.30;0.93;;;;;;;;;;5052791;28;20407;-78
2021/01/30 00:26:42;;;;;;;1.73;1.20;;;;;;;;;;5052932;28;20407;-79
2021/01/30 00:29:08;;;;;;;0.80;0.47;;;;;;;;;;5034873;28;20431;-78
2021/01/30 00:31:34;;;;;;;1.23;0.50;;;;;;;;;;5052641;28;20506;-78
2021/01/30 00:34:00;;;;;;;1.20;0.73;;;;;;;;;;5052723;28;20889;-79
2021/01/30 00:36:26;;;;;;;1.53;0.40;;;;;;;;;;5052774;28;20451;-78
2021/01/30 00:38:52;;;;;;;0.67;0.50;;;;;;;;;;5052442;28;20453;-78
2021/01/30 00:41:18;;;;;;;1.77;0.87;;;;;;;;;;5052542;28;20878;-79
2021/01/30 00:43:44;;;;;;;0.97;0.53;;;;;;;;;;5052630;28;20423;-79
2021/01/30 00:46:10;;;;;;;2.27;0.70;;;;;;;;;;5052600;28;20465;-79
2021/01/30 00:48:36;;;;;;;6.50;0.67;;;;;;;;;;5052553;28;20524;-79
2021/01/30 00:51:02;;;;;;;2.53;0.57;;;;;;;;;;5044424;28;20948;-79
2021/01/30 00:53:28;;;;;;;0.70;0.50;;;;;;;;;;5034733;28;20573;-79
2021/01/30 00:55:54;;;;;;;0.50;0.50;;;;;;;;;;5052130;28;20403;-79
2021/01/30 00:58:20;;;;;;;1.30;0.90;;;;;;;;;;5052355;28;20418;-79
2021/01/30 01:00:46;;;;;;;0.50;0.50;;;;;;;;;;5057124;28;20430;-78
2021/01/30 01:06:15;;;;;;;0.83;0.43;;;;;;;;;;5052606;28;20403;-79
2021/01/30 01:08:41;;;;;;;0.50;0.50;;;;;;;;;;5052277;28;20407;-79
2021/01/30 01:11:07;;;;;;;2.93;0.43;;;;;;;;;;5052422;28;20739;-79
2021/01/30 01:13:33;;;;;;;1.00;0.90;;;;;;;;;;5052165;28;20816;-79
2021/01/30 01:15:59;;;;;;;1.60;0.80;;;;;;;;;;5052275;28;20407;-79
2021/01/30 01:21:28;;;;;;;2.07;0.50;;;;;;;;;;5052334;28;20557;-79
2021/01/30 01:23:54;;;;;;;0.53;0.40;;;;;;;;;;5052259;28;20410;-79
2021/01/30 01:26:21;;;;;;;0.90;0.50;;;;;;;;;;5052593;28;20473;-79
2021/01/30 01:28:49;;;;;;;3.38;0.90;;;;;;;;;;5052435;28;20419;-79
2021/01/30 01:31:16;;;;;;;1.47;0.40;;;;;;;;;;5052339;28;20162;-78
2021/01/30 01:36:51;;;;;;;0.70;0.40;;;;;;;;;;5052168;28;20476;-79
2021/01/30 01:39:17;;;;;;;0.50;0.40;;;;;;;;;;5053099;28;20407;-79
2021/01/30 01:41:43;;;;;;;1.07;0.33;;;;;;;;;;5055870;28;20581;-79
2021/01/30 01:44:09;;;;;;;1.03;0.43;;;;;;;;;;5056448;28;20407;-79
2021/01/30 01:46:38;;;;;;;3.90;0.70;;;;;;;;;;5056030;28;20451;-80
2021/01/30 01:49:07;;;;;;;1.00;0.27;;;;;;;;;;5055692;28;20418;-79
2021/01/30 01:51:38;;;;;;;1.15;0.50;;;;;;;;;;5055924;28;20415;-79
2021/01/30 01:54:07;;;;;;;0.50;0.40;;;;;;;;;;5055625;28;20173;-78
2021/01/30 01:56:34;;;;;;;0.97;0.40;;;;;;;;;;5055526;28;20766;-79
2021/01/30 01:59:08;;;;;;;0.40;0.30;;;;;;;;;;5055422;28;20414;-78
2021/01/30 02:01:35;;;;;;;0.50;0.40;;;;;;;;;;5055414;28;20979;-79
2021/01/30 02:04:02;;;;;;;1.80;0.50;;;;;;;;;;5055713;28;20442;-79
2021/01/30 02:06:28;;;;;;;2.77;0.40;;;;;;;;;;5055554;28;20482;-78
2021/01/30 02:08:54;;;;;;;0.40;0.30;;;;;;;;;;5055455;28;20493;-79
2021/01/30 02:11:20;;;;;;;2.40;0.40;;;;;;;;;;5055374;28;20498;-79
2021/01/30 02:13:49;;;;;;;0.73;0.20;;;;;;;;;;5055208;28;20474;-79
2021/01/30 02:16:21;;;;;;;0.53;0.30;;;;;;;;;;5055533;28;20418;-78
2021/01/30 02:22:09;;;;;;;0.40;0.30;;;;;;;;;;5055049;28;20508;-78
2021/01/30 02:24:52;;;;;;;0.65;0.60;;;;;;;;;;5055034;28;20422;-78
2021/01/30 02:27:18;;;;;;;0.90;0.40;;;;;;;;;;5055167;28;20167;-78
2021/01/30 02:29:53;;;;;;;0.30;0.20;;;;;;;;;;5055108;28;20490;-78
2021/01/30 02:32:22;;;;;;;0.57;0.47;;;;;;;;;;5055219;28;20425;-79
2021/01/30 02:34:51;;;;;;;0.40;0.30;;;;;;;;;;5036991;28;20952;-78
2021/01/30 02:37:23;;;;;;;1.33;0.40;;;;;;;;;;5054951;28;20407;-78
2021/01/30 02:39:52;;;;;;;0.63;0.30;;;;;;;;;;5054785;28;20415;-78
2021/01/30 02:42:33;;;;;;;0.60;0.50;;;;;;;;;;5054521;28;20459;-79
2021/01/30 02:45:05;;;;;;;0.80;0.53;;;;;;;;;;5054510;28;20406;-79
2021/01/30 02:47:34;;;;;;;0.40;0.37;;;;;;;;;;5054824;28;20438;-79
2021/01/30 02:50:09;;;;;;;0.70;0.40;;;;;;;;;;5054717;28;20445;-78
2021/01/30 02:52:37;;;;;;;2.42;0.50;;;;;;;;;;5058743;28;20440;-78
2021/01/30 02:55:04;;;;;;;1.10;0.60;;;;;;;;;;5054570;28;20164;-78
2021/01/30 02:57:30;;;;;;;0.40;0.40;;;;;;;;;;5054585;28;20439;-78
2021/01/30 02:59:58;;;;;;;1.17;0.43;;;;;;;;;;5054442;28;20542;-78
2021/01/30 03:02:25;;;;;;;1.23;0.50;;;;;;;;;;5054317;28;20462;-78
2021/01/30 03:04:56;;;;;;;0.63;0.50;;;;;;;;;;5036648;28;20427;-79
2021/01/30 03:07:22;;;;;;;0.90;0.43;;;;;;;;;;5054546;28;20884;-79
2021/01/30 03:10:00;;;;;;;0.50;0.40;;;;;;;;;;5054288;28;20411;-78
2021/01/30 03:12:38;;;;;;;0.73;0.47;;;;;;;;;;5054398;28;20489;-79
2021/01/30 03:15:10;;;;;;;1.37;0.43;;;;;;;;;;5054312;28;20489;-79
2021/01/30 03:17:36;;;;;;;1.77;0.40;;;;;;;;;;5054369;28;20852;-78
2021/01/30 03:20:03;;;;;;;1.47;0.60;;;;;;;;;;5036089;28;20263;-78
2021/01/30 03:22:31;;;;;;;2.50;0.60;;;;;;;;;;5053850;28;20459;-78
2021/01/30 03:24:57;;;;;;;1.50;0.40;;;;;;;;;;5053884;28;20457;-79
2021/01/30 03:27:27;;;;;;;1.20;0.50;;;;;;;;;;5054037;28;20453;-79
2021/01/30 03:29:54;;;;;;;0.60;0.45;;;;;;;;;;5036419;28;20191;-78
2021/01/30 03:32:21;;;;;;;0.40;0.30;;;;;;;;;;5053931;28;20178;-79
2021/01/30 03:34:47;;;;;;;1.90;0.68;;;;;;;;;;5053618;28;20423;-79
2021/01/30 03:37:14;;;;;;;1.03;0.60;;;;;;;;;;5053769;28;20179;-79
2021/01/30 03:39:40;;;;;;;1.10;0.60;;;;;;;;;;5053467;28;20490;-79
2021/01/30 03:42:06;;;;;;;1.00;0.60;;;;;;;;;;5053444;28;20628;-79
2021/01/30 03:44:32;;;;;;;3.80;0.47;;;;;;;;;;5053476;28;20415;-79
2021/01/30 03:46:58;;;;;;;0.83;0.40;;;;;;;;;;5053631;28;20426;-79
2021/01/30 03:52:27;;;;;;;0.53;0.40;;;;;;;;;;5053170;28;20945;-79
2021/01/30 03:54:53;;;;;;;0.77;0.40;;;;;;;;;;5053290;28;20414;-79
2021/01/30 03:57:19;;;;;;;0.53;0.40;;;;;;;;;;5053192;28;20406;-79
2021/01/30 03:59:45;;;;;;;0.60;0.50;;;;;;;;;;5053339;28;20835;-78
2021/01/30 04:02:11;;;;;;;0.67;0.40;;;;;;;;;;5050201;28;20474;-79
2021/01/30 04:07:42;;;;;;;0.40;0.40;;;;;;;;;;5053183;28;20793;-79
2021/01/30 04:10:11;;;;;;;0.50;0.30;;;;;;;;;;5052853;28;20412;-78
2021/01/30 04:12:39;;;;;;;0.60;0.40;;;;;;;;;;5052892;28;20458;-79
2021/01/30 04:15:06;;;;;;;0.40;0.30;;;;;;;;;;5053105;28;20407;-79
2021/01/30 04:17:35;;;;;;;0.50;0.40;;;;;;;;;;5053228;28;20164;-79
2021/01/30 04:23:05;;;;;;;0.65;0.30;;;;;;;;;;5052792;28;20218;-79
2021/01/30 04:25:30;;;;;;;0.40;0.30;;;;;;;;;;5052732;28;20188;-79
2021/01/30 04:27:59;;;;;;;2.43;0.40;;;;;;;;;;5053139;28;20445;-79
2021/01/30 04:30:27;;;;;;;1.03;0.63;;;;;;;;;;5053125;28;20426;-77
2021/01/30 04:32:56;;;;;;;0.83;0.50;;;;;;;;;;5054923;28;20423;-77
2021/01/30 04:38:25;;;;;;;1.03;0.30;;;;;;;;;;5052830;28;20851;-78
2021/01/30 04:40:57;;;;;;;2.40;0.40;;;;;;;;;;5052351;28;20418;-78
2021/01/30 04:43:32;;;;;;;0.75;0.55;;;;;;;;;;5052551;28;20435;-79
2021/01/30 04:46:04;;;;;;;0.30;0.20;;;;;;;;;;5034748;28;20210;-78
2021/01/30 04:48:36;;;;;;;0.40;0.40;;;;;;;;;;5052491;28;20453;-79
2021/01/30 04:51:07;;;;;;;1.20;0.60;;;;;;;;;;5052562;28;20939;-79
2021/01/30 04:53:45;;;;;;;2.20;0.57;;;;;;;;;;5052461;28;20186;-79
2021/01/30 04:56:11;;;;;;;6.13;0.60;;;;;;;;;;5052403;28;20749;-79
2021/01/30 04:58:46;;;;;;;1.23;0.50;;;;;;;;;;5052319;28;20430;-79
2021/01/30 05:01:20;;;;;;;1.13;0.50;;;;;;;;;;5052485;28;20831;-78
2021/01/30 05:04:05;;;;;;;2.03;0.40;;;;;;;;;;5052209;28;20255;-80
2021/01/30 05:06:40;;;;;;;0.63;0.50;;;;;;;;;;5052683;28;20411;-78
2021/01/30 05:09:09;;;;;;;2.53;0.60;;;;;;;;;;5052104;28;20411;-78
2021/01/30 05:11:37;;;;;;;1.23;0.50;;;;;;;;;;5052478;28;20812;-78
2021/01/30 05:14:07;;;;;;;0.70;0.50;;;;;;;;;;5034852;28;20900;-79
2021/01/30 05:16:38;;;;;;;3.20;0.55;;;;;;;;;;5056346;28;20179;-78
2021/01/30 05:19:09;;;;;;;1.17;0.60;;;;;;;;;;5056195;28;20180;-78
2021/01/30 05:21:47;;;;;;;1.03;0.47;;;;;;;;;;5056371;28;20809;-79
2021/01/30 05:24:14;;;;;;;1.50;0.60;;;;;;;;;;5055982;28;20448;-78
2021/01/30 05:26:40;;;;;;;1.97;0.60;;;;;;;;;;5056094;28;20430;-77
2021/01/30 05:29:12;;;;;;;1.27;0.60;;;;;;;;;;5056104;28;20414;-78
2021/01/30 05:31:44;;;;;;;4.00;0.97;;;;;;;;;;5056017;28;20408;-78
2021/01/30 05:34:29;;;;;;;5.60;1.10;;;;;;;;;;5056040;28;20725;-78
2021/01/30 05:37:00;;;;;;;2.10;0.77;;;;;;;;;;5055864;28;20405;-78
2021/01/30 05:39:33;;;;;;;1.50;1.00;;;;;;;;;;5055638;28;20399;-78
2021/01/30 05:42:02;;;;;;;1.70;0.80;;;;;;;;;;5055994;28;20909;-79
2021/01/30 05:44:46;;;;;;;3.30;1.03;;;;;;;;;;5055881;28;20916;-79
2021/01/30 05:47:21;;;;;;;6.50;1.00;;;;;;;;;;5056263;28;20419;-77
2021/01/30 05:49:56;;;;;;;3.37;1.37;;;;;;;;;;5055956;28;20255;-78
2021/01/30 05:52:25;;;;;;;4.93;1.08;;;;;;;;;;5055521;28;20799;-79
2021/01/30 05:54:51;;;;;;;5.07;0.93;;;;;;;;;;5055485;28;20238;-79
2021/01/30 05:57:18;;;;;;;6.30;1.20;;;;;;;;;;5055468;28;20415;-78
2021/01/30 05:59:48;;;;;;;5.93;1.57;;;;;;;;;;5055561;28;20945;-78
2021/01/30 06:02:16;;;;;;;5.47;1.13;;;;;;;;;;5037492;28;20562;-78
2021/01/30 06:04:42;;;;;;;3.20;1.48;;;;;;;;;;5055541;28;20416;-78
2021/01/30 06:07:23;;;;;;;1.20;0.83;;;;;;;;;;5055444;28;20663;-78
2021/01/30 06:09:49;;;;;;;5.37;1.20;;;;;;;;;;5055125;28;20490;-78
2021/01/30 06:12:18;;;;;;;2.20;1.43;;;;;;;;;;5054875;28;20473;-78
2021/01/30 06:14:44;;;;;;;8.80;1.37;;;;;;;;;;5056453;28;20419;-78
2021/01/30 06:17:26;;;;;;;3.63;1.10;;;;;;;;;;5062897;28;20442;-78
2021/01/30 06:20:01;;;;;;;3.38;1.50;;;;;;;;;;5055268;28;20769;-79
2021/01/30 06:22:27;;;;;;;6.90;1.67;;;;;;;;;;5055117;28;20303;-80
2021/01/30 06:24:53;;;;;;;3.70;1.53;;;;;;;;;;5054928;28;20168;-80
2021/01/30 06:27:19;;;;;;;6.40;1.40;;;;;;;;;;5055282;28;20430;-80
2021/01/30 06:29:52;;;;;;;4.47;1.53;;;;;;;;;;5055435;28;20415;-79
2021/01/30 06:32:23;;;;;;;2.58;1.60;;;;;;;;;;5055406;28;20426;-79
2021/01/30 06:35:09;;;;;;;2.30;1.20;;;;;;;;;;5055146;28;20615;-79
2021/01/30 06:37:38;;;;;;;4.80;1.45;;;;;;;;;;5037034;28;20908;-79
2021/01/30 06:40:14;;;;;;;2.78;1.40;;;;;;;;;;5055137;28;20176;-79
2021/01/30 06:42:43;;;;;;;1.93;1.10;;;;;;;;;;5055368;28;20208;-79
2021/01/30 06:45:10;;;;;;;4.67;1.40;;;;;;;;;;5055173;28;20483;-79
2021/01/30 06:47:49;;;;;;;4.40;1.23;;;;;;;;;;5054861;28;20419;-80
2021/01/30 06:50:39;;;;;;;2.20;0.87;;;;;;;;;;5036642;28;20584;-79
2021/01/30 06:53:16;;;;;;;3.73;1.23;;;;;;;;;;5054631;28;20419;-78
2021/01/30 06:55:42;;;;;;;6.27;1.50;;;;;;;;;;5036482;28;20435;-78
2021/01/30 06:58:10;;;;;;;6.53;1.40;;;;;;;;;;5054491;28;20897;-78
2021/01/30 07:00:37;;;;;;;5.77;1.90;;;;;;;;;;5054729;28;20560;-78
2021/01/30 07:03:23;;;;;;;5.27;1.77;;;;;;;;;;5054556;28;20577;-78
2021/01/30 07:06:21;;;;;;;4.00;1.17;;;;;;;;;;5019995;28;20507;-78
2021/01/30 07:08:55;;;;;;;5.95;1.23;;;;;;;;;;4983370;28;20435;-81
2021/01/30 07:11:39;;;;;;;5.33;2.00;;;;;;;;;;5054481;28;20163;-79
2021/01/30 07:14:08;;;;;;;5.50;1.50;;;;;;;;;;5054266;28;20823;-80
2021/01/30 07:16:53;;;;;;;8.93;1.47;;;;;;;;;;5054596;28;20510;-80
2021/01/30 07:22:30;;;;;;;6.77;2.40;;;;;;;;;;5054348;28;20508;-79
2021/01/30 07:25:12;;;;;;;6.27;2.13;;;;;;;;;;5054467;28;20939;-81
2021/01/30 07:27:48;;;;;;;7.13;1.80;;;;;;;;;;5054257;28;20756;-79
2021/01/30 07:30:17;;;;;;;9.13;2.33;;;;;;;;;;5054113;28;20517;-81
2021/01/30 07:32:56;;;;;;;4.40;2.03;;;;;;;;;;5054358;28;20423;-80
2021/01/30 07:38:29;;;;;;;8.20;2.10;;;;;;;;;;5053760;28;20179;-79
2021/01/30 07:40:55;;;;;;;3.10;1.67;;;;;;;;;;5053604;28;20422;-78
2021/01/30 07:43:26;;;;;;;7.73;1.63;;;;;;;;;;5053850;28;20477;-81
2021/01/30 07:46:04;;;;;;;7.60;1.23;;;;;;;;;;5053759;28;20460;-79
2021/01/30 07:48:38;;;;;;;6.33;2.97;;;;;;;;;;5053738;28;20476;-80
2021/01/30 07:54:07;;;;;;;3.37;1.40;;;;;;;;;;5053646;28;20516;-79
2021/01/30 07:56:43;;;;;;;5.80;1.73;;;;;;;;;;5052820;28;20407;-80
2021/01/30 07:59:21;;;;;;;6.50;1.83;;;;;;;;;;5057018;28;20406;-80
2021/01/30 08:01:47;;;;;;;11.27;2.87;;;;;;;;;;5053432;28;20231;-80
2021/01/30 08:04:22;;;;;;;6.57;1.77;;;;;;;;;;5053224;28;20415;-80
2021/01/30 08:10:00;;;;;;;9.10;2.87;;;;;;;;;;5052942;28;20410;-81
2021/01/30 08:12:29;;;;;;;10.40;1.83;;;;;;;;;;5052758;28;20536;-80
2021/01/30 08:15:11;;;;;;;5.70;1.87;;;;;;;;;;5053019;28;20509;-80
2021/01/30 08:17:47;;;;;;;4.67;2.17;;;;;;;;;;5052932;28;20422;-79
2021/01/30 08:20:17;;;;;;;5.23;1.40;;;;;;;;;;5052604;28;20453;-80
2021/01/30 08:23:02;;;;;;;7.97;1.97;;;;;;;;;;5053032;28;20860;-80
2021/01/30 08:25:37;;;;;;;5.63;1.60;;;;;;;;;;5052926;28;20453;-79
2021/01/30 08:28:10;;;;;;;2.20;1.50;;;;;;;;;;5053186;28;20460;-79
2021/01/30 08:30:44;;;;;;;5.43;1.57;;;;;;;;;;5053088;28;20521;-79
2021/01/30 08:33:20;;;;;;;4.50;1.83;;;;;;;;;;5053038;28;20936;-78
2021/01/30 08:36:06;;;;;;;6.70;2.10;;;;;;;;;;5052703;28;20407;-79
2021/01/30 08:38:33;;;;;;;6.10;2.03;;;;;;;;;;5033017;28;20493;-78
2021/01/30 08:41:11;;;;;;;6.60;1.43;;;;;;;;;;5034343;28;20441;-79
2021/01/30 08:43:48;;;;;;;6.43;2.10;;;;;;;;;;5052188;28;20504;-79
2021/01/30 08:46:22;;;;;;;6.67;2.33;;;;;;;;;;5052435;28;20764;-79
2021/01/30 08:49:03;;;;;;;5.60;2.67;;;;;;;;;;5051566;28;20427;-79
2021/01/30 08:51:29;;;;;;;10.97;3.03;;;;;;;;;;5034828;28;20477;-79
2021/01/30 08:53:56;;;;;;;6.23;2.90;;;;;;;;;;5052338;28;20889;-78
2021/01/30 08:56:41;;;;;;;5.63;2.20;;;;;;;;;;5052098;28;20415;-77
2021/01/30 08:59:10;;;;;;;4.03;2.10;;;;;;;;;;5052352;28;20447;-78
2021/01/30 09:01:36;;;;;;;7.53;2.57;;;;;;;;;;5052002;28;20533;-77
2021/01/30 09:04:03;;;;;;;5.67;1.90;;;;;;;;;;5052364;28;20531;-77
2021/01/30 09:06:41;;;;;;;7.40;2.30;;;;;;;;;;5052170;28;20438;-78
2021/01/30 09:09:16;;;;;;;5.80;2.10;;;;;;;;;;5051695;28;20411;-79
2021/01/30 09:12:06;;;;;;;8.23;2.40;;;;;;;;;;5033980;28;20410;-81
2021/01/30 09:14:34;;;;;;;9.20;2.30;;;;;;;;;;5015432;28;20439;-80
2021/01/30 09:17:03;;;;;;;16.10;3.40;;;;;;;;;;5036387;28;20411;-80
2021/01/30 09:19:35;;;;;;;9.13;2.33;;;;;;;;;;5018105;28;20442;-80
2021/01/30 09:22:07;;;;;;;12.97;3.40;;;;;;;;;;5032505;28;20456;-78
2021/01/30 09:24:48;;;;;;;13.27;2.53;;;;;;;;;;5014625;28;20839;-77
2021/01/30 09:27:18;;;;;;;8.23;2.40;;;;;;;;;;5032419;28;20924;-79
2021/01/30 09:29:48;;;;;;;11.87;3.20;;;;;;;;;;5032523;28;20929;-80
2021/01/30 09:32:15;;;;;;;9.83;2.43;;;;;;;;;;5032551;28;20860;-80
2021/01/30 09:34:47;;;;;;;9.00;3.17;;;;;;;;;;5032571;28;20419;-79
2021/01/30 09:37:27;;;;;;;9.87;3.00;;;;;;;;;;5032371;28;20439;-79
2021/01/30 09:39:57;;;;;;;4.97;2.33;;;;;;;;;;5032363;28;20423;-80
2021/01/30 09:42:24;;;;;;;3.43;1.63;;;;;;;;;;5032263;28;20542;-80
2021/01/30 09:45:10;;;;;;;10.70;2.47;;;;;;;;;;5014680;28;20427;-80
2021/01/30 09:47:36;;;;;;;11.13;2.20;;;;;;;;;;5032381;28;20408;-79
2021/01/30 09:50:13;;;;;;;9.90;3.20;;;;;;;;;;5032543;28;20409;-79
2021/01/30 09:52:46;;;;;;;10.27;2.07;;;;;;;;;;5032285;28;20925;-80
2021/01/30 09:55:12;;;;;;;5.80;2.23;;;;;;;;;;5032297;28;20901;-80
2021/01/30 09:57:40;;;;;;;5.97;1.90;;;;;;;;;;5032324;28;20467;-80
2021/01/30 10:00:10;;;;;;;9.80;2.17;;;;;;;;;;5033502;28;20467;-80
2021/01/30 10:02:36;;;;;;;5.80;2.10;;;;;;;;;;5018392;28;20472;-82
2021/01/30 10:05:19;;;;;;;4.27;2.43;;;;;;;;;;5036019;28;20492;-81
2021/01/30 10:11:15;;;;;;;9.07;2.20;;;;;;;;;;5035697;28;20473;-78
2021/01/30 10:13:43;;;;;;;7.83;2.90;;;;;;;;;;5047111;28;20484;-79
2021/01/30 10:16:12;;;;;;;6.10;2.03;;;;;;;;;;5055714;28;20442;-79
2021/01/30 10:18:39;;;;;;;8.93;2.77;;;;;;;;;;5055841;28;20439;-80
2021/01/30 10:21:07;;;;;;;7.63;1.80;;;;;;;;;;5037812;28;20441;-78
2021/01/30 10:23:33;;;;;;;7.33;1.93;;;;;;;;;;5055737;28;20416;-79
2021/01/30 10:26:08;;;;;;;6.97;2.37;;;;;;;;;;5055530;28;20418;-79
2021/01/30 10:28:45;;;;;;;7.90;1.63;;;;;;;;;;5055514;28;20806;-78
2021/01/30 10:31:11;;;;;;;2.70;1.20;;;;;;;;;;5055733;28;20432;-78
2021/01/30 10:33:40;;;;;;;4.67;2.20;;;;;;;;;;5055414;28;20423;-77
2021/01/30 10:36:06;;;;;;;5.60;2.27;;;;;;;;;;5055332;28;20415;-77
2021/01/30 10:38:33;;;;;;;7.07;2.80;;;;;;;;;;5055350;28;20419;-78
2021/01/30 10:41:01;;;;;;;4.80;1.90;;;;;;;;;;5037317;28;20431;-79
2021/01/30 10:43:32;;;;;;;5.27;1.43;;;;;;;;;;5055153;28;20473;-79
2021/01/30 10:46:01;;;;;;;6.57;1.90;;;;;;;;;;5055187;28;20411;-78
2021/01/30 10:48:29;;;;;;;7.93;2.40;;;;;;;;;;5055217;28;20415;-79
2021/01/30 10:51:01;;;;;;;9.50;2.23;;;;;;;;;;5055516;28;20781;-78
2021/01/30 10:56:31;;;;;;;6.20;2.77;;;;;;;;;;5054913;28;20884;-79
2021/01/30 10:58:58;;;;;;;17.73;2.70;;;;;;;;;;5055165;28;20407;-80
2021/01/30 11:01:29;;;;;;;5.53;2.10;;;;;;;;;;5061888;28;20424;-78
2021/01/30 11:03:59;;;;;;;6.10;2.03;;;;;;;;;;5055955;28;20738;-78
2021/01/30 11:06:38;;;;;;;8.30;3.20;;;;;;;;;;5055133;28;20466;-80
2021/01/30 11:09:30;;;;;;;10.17;2.87;;;;;;;;;;5054788;28;20420;-79
2021/01/30 11:12:14;;;;;;;7.27;2.63;;;;;;;;;;5053595;28;20477;-79
2021/01/30 11:14:40;;;;;;;7.93;2.17;;;;;;;;;;5054494;28;20909;-79
2021/01/30 11:17:15;;;;;;;5.90;2.80;;;;;;;;;;5054733;28;20542;-78
2021/01/30 11:19:44;;;;;;;8.40;2.50;;;;;;;;;;5054625;28;20452;-79
2021/01/30 11:22:10;;;;;;;7.50;1.90;;;;;;;;;;5054439;28;20486;-79
2021/01/30 11:24:54;;;;;;;5.40;2.10;;;;;;;;;;5054243;28;20420;-80
2021/01/30 11:27:29;;;;;;;9.10;2.50;;;;;;;;;;5054433;28;20865;-80
2021/01/30 11:29:55;;;;;;;10.73;2.53;;;;;;;;;;5054808;28;20472;-79
2021/01/30 11:32:23;;;;;;;7.60;1.93;;;;;;;;;;5054314;28;20877;-79
2021/01/30 11:34:52;;;;;;;6.00;2.10;;;;;;;;;;5054232;28;20416;-80
2021/01/30 11:37:21;;;;;;;3.03;2.70;;;;;;;;;;5054187;28;20512;-79
2021/01/30 11:39:49;;;;;;;8.83;2.10;;;;;;;;;;5054213;28;20740;-79
2021/01/30 11:42:18;;;;;;;7.50;2.47;;;;;;;;;;5036253;28;20475;-81
2021/01/30 11:44:44;;;;;;;6.90;2.20;;;;;;;;;;5054079;28;20886;-80
2021/01/30 11:47:10;;;;;;;9.63;2.67;;;;;;;;;;5054290;28;20422;-79
2021/01/30 11:49:36;;;;;;;5.97;4.80;;;;;;;;;;5054026;28;20411;-80
2021/01/30 11:52:02;;;;;;;9.37;2.90;;;;;;;;;;5053935;28;20473;-80
2021/01/30 11:54:28;;;;;;;10.83;2.53;;;;;;;;;;5053677;28;20414;-80
2021/01/30 11:56:54;;;;;;;7.67;2.13;;;;;;;;;;5053782;28;20420;-80
2021/01/30 11:59:23;;;;;;;9.43;2.30;;;;;;;;;;5053669;28;20411;-79
2021/01/30 12:01:49;;;;;;;4.70;2.17;;;;;;;;;;5052977;28;20480;-80
2021/01/30 12:04:18;;;;;;;5.73;2.40;;;;;;;;;;5035632;28;20447;-78
2021/01/30 12:06:47;;;;;;;6.67;2.13;;;;;;;;;;5053398;28;20407;-80
2021/01/30 12:09:13;;;;;;;3.53;2.00;;;;;;;;;;5053527;28;20773;-80
2021/01/30 12:11:39;;;;;;;4.80;2.00;;;;;;;;;;5053609;28;20415;-80
2021/01/30 12:14:05;;;;;;;8.20;1.90;;;;;;;;;;5053359;28;20466;-80
2021/01/30 12:16:32;;;;;;;3.40;1.33;;;;;;;;;;5053683;28;20407;-79
2021/01/30 12:18:58;;;;;;;8.30;1.90;;;;;;;;;;5053222;28;20415;-80
2021/01/30 12:21:25;;;;;;;8.43;2.43;;;;;;;;;;5053401;28;20415;-79
2021/01/30 12:26:55;;;;;;;4.73;1.80;;;;;;;;;;5053435;28;20944;-79
2021/01/30 12:29:21;;;;;;;9.67;2.37;;;;;;;;;;5053363;28;20486;-79
2021/01/30 12:31:49;;;;;;;7.07;1.80;;;;;;;;;;5053374;28;20439;-79
2021/01/30 12:34:15;;;;;;;1.93;1.83;;;;;;;;;;5053454;28;20951;-80
2021/01/30 12:36:41;;;;;;;3.80;2.07;;;;;;;;;;5053447;28;20523;-79
2021/01/30 12:42:11;;;;;;;2.70;1.73;;;;;;;;;;5053307;28;20528;-79
2021/01/30 12:44:37;;;;;;;9.87;2.23;;;;;;;;;;5053190;28;20423;-80
2021/01/30 12:47:03;;;;;;;5.63;1.50;;;;;;;;;;5062367;28;20461;-79
2021/01/30 12:49:29;;;;;;;6.07;2.10;;;;;;;;;;5053214;28;20429;-79
2021/01/30 12:51:55;;;;;;;7.90;2.00;;;;;;;;;;5053115;28;20484;-79
2021/01/30 12:54:22;;;;;;;5.60;1.77;;;;;;;;;;5052743;28;20850;-79
2021/01/30 12:56:49;;;;;;;6.67;2.20;;;;;;;;;;5053092;28;20514;-79
2021/01/30 12:59:17;;;;;;;7.23;2.43;;;;;;;;;;5035349;28;20419;-80
2021/01/30 13:01:43;;;;;;;2.97;1.70;;;;;;;;;;5052656;28;20557;-79
2021/01/30 13:04:09;;;;;;;7.97;2.47;;;;;;;;;;5052886;28;20465;-79
2021/01/30 13:06:40;;;;;;;4.67;1.90;;;;;;;;;;5052891;28;20411;-80
2021/01/30 13:12:10;;;;;;;8.67;2.10;;;;;;;;;;5052595;28;20505;-80
2021/01/30 13:14:59;;;;;;;6.13;2.40;;;;;;;;;;5052541;28;20424;-80
2021/01/30 13:17:27;;;;;;;4.93;1.70;;;;;;;;;;5052070;28;20944;-80
2021/01/30 13:19:53;;;;;;;5.53;1.60;;;;;;;;;;5052704;28;20418;-81
2021/01/30 13:22:22;;;;;;;3.10;1.10;;;;;;;;;;5052597;28;20463;-80
2021/01/30 13:24:49;;;;;;;4.87;1.77;;;;;;;;;;5052560;28;20415;-80
2021/01/30 13:27:16;;;;;;;3.90;2.07;;;;;;;;;;5052675;28;20404;-80
2021/01/30 13:29:45;;;;;;;4.40;2.30;;;;;;;;;;5052566;28;20419;-80
2021/01/30 13:32:11;;;;;;;3.60;1.60;;;;;;;;;;5052495;28;20402;-81
2021/01/30 13:34:37;;;;;;;3.07;2.00;;;;;;;;;;5034651;28;20435;-79
2021/01/30 13:42:52;;;;;;;3.60;1.50;;;;;;;;;;5056454;28;20526;-80
2021/01/30 13:45:21;;;;;;;4.97;1.10;;;;;;;;;;5056270;28;20441;-79
2021/01/30 13:47:47;;;;;;;4.00;2.90;;;;;;;;;;5056395;28;20806;-80
2021/01/30 13:50:13;;;;;;;1.83;0.77;;;;;;;;;;5056179;28;20468;-80
2021/01/30 13:52:40;;;;;;;3.53;1.03;;;;;;;;;;5056125;28;20755;-79
2021/01/30 13:55:07;;;;;;;4.27;1.70;;;;;;;;;;5038357;28;20419;-78
2021/01/30 13:57:33;;;;;;;5.40;1.30;;;;;;;;;;5056301;28;20488;-78
2021/01/30 13:59:59;;;;;;;4.60;1.13;;;;;;;;;;5055922;28;20414;-78
2021/01/30 14:02:25;;;;;;;4.73;1.57;;;;;;;;;;5055900;28;20473;-78
2021/01/30 14:04:51;;;;;;;5.53;1.53;;;;;;;;;;5055907;28;20410;-79
2021/01/30 14:13:05;;;;;;;2.13;1.77;;;;;;;;;;5055963;28;20577;-80
2021/01/30 14:15:31;;;;;;;1.50;1.37;;;;;;;;;;5055771;28;20407;-79
2021/01/30 14:17:58;;;;;;;3.97;1.60;;;;;;;;;;5055620;28;20403;-80
2021/01/30 14:20:27;;;;;;;3.93;1.83;;;;;;;;;;5055922;28;20447;-80
2021/01/30 14:22:53;;;;;;;2.50;1.33;;;;;;;;;;5055659;28;20991;-80
2021/01/30 14:25:19;;;;;;;1.90;1.33;;;;;;;;;;5055467;28;20411;-79
2021/01/30 14:27:48;;;;;;;5.70;1.37;;;;;;;;;;5037852;28;20781;-80
2021/01/30 14:30:15;;;;;;;3.53;1.33;;;;;;;;;;5059471;28;20746;-79
2021/01/30 14:32:41;;;;;;;2.40;1.00;;;;;;;;;;5060760;28;20429;-79
2021/01/30 14:35:08;;;;;;;1.40;1.00;;;;;;;;;;5055677;28;20411;-79
2021/01/30 14:37:37;;;;;;;2.00;1.13;;;;;;;;;;5037319;28;20863;-79
2021/01/30 14:40:03;;;;;;;3.50;1.50;;;;;;;;;;5055277;28;20856;-79
2021/01/30 14:42:32;;;;;;;3.07;1.20;;;;;;;;;;5055416;28;20802;-79
2021/01/30 14:44:58;;;;;;;2.20;1.10;;;;;;;;;;5055246;28;20415;-80
2021/01/30 14:47:24;;;;;;;2.80;1.37;;;;;;;;;;5055128;28;20510;-78
2021/01/30 14:49:50;;;;;;;1.60;1.50;;;;;;;;;;5055566;28;20417;-79
2021/01/30 14:52:16;;;;;;;5.53;1.90;;;;;;;;;;5038773;28;20447;-79
2021/01/30 14:57:45;;;;;;;3.57;1.93;;;;;;;;;;5054910;28;20414;-80
2021/01/30 15:00:13;;;;;;;8.47;2.33;;;;;;;;;;5054725;28;20418;-79
2021/01/30 15:02:39;;;;;;;6.57;2.13;;;;;;;;;;5054632;28;20517;-79
2021/01/30 15:05:05;;;;;;;2.77;2.33;;;;;;;;;;5054728;28;20439;-79
2021/01/30 15:07:31;;;;;;;5.43;2.50;;;;;;;;;;5052298;28;20459;-79
2021/01/30 15:13:01;;;;;;;4.47;1.40;;;;;;;;;;5053786;28;20470;-77
2021/01/30 15:15:27;;;;;;;1.90;1.60;;;;;;;;;;5053576;28;20429;-79
2021/01/30 15:17:54;;;;;;;3.67;1.20;;;;;;;;;;5053875;28;20525;-80
2021/01/30 15:20:20;;;;;;;2.33;1.23;;;;;;;;;;5053736;28;20173;-80
2021/01/30 15:22:46;;;;;;;2.13;1.40;;;;;;;;;;5053490;28;20473;-78
2021/01/30 15:28:16;;;;;;;1.88;1.23;;;;;;;;;;5054140;28;20505;-79
2021/01/30 15:30:42;;;;;;;1.38;1.27;;;;;;;;;;5054069;28;20171;-79
2021/01/30 15:33:08;;;;;;;6.03;1.90;;;;;;;;;;5053002;28;20156;-78
2021/01/30 15:35:34;;;;;;;3.20;1.93;;;;;;;;;;5053392;28;20414;-78
2021/01/30 15:38:00;;;;;;;2.97;2.17;;;;;;;;;;5053425;28;20472;-79
2021/01/30 15:43:29;;;;;;;7.10;2.47;;;;;;;;;;5052990;28;20222;-79
2021/01/30 15:45:59;;;;;;;3.07;1.73;;;;;;;;;;5053253;28;20176;-78
2021/01/30 15:48:25;;;;;;;2.67;1.80;;;;;;;;;;5053481;28;20798;-78
2021/01/30 15:50:52;;;;;;;2.97;2.00;;;;;;;;;;5052952;28;20174;-78
2021/01/30 15:53:17;;;;;;;2.50;1.92;;;;;;;;;;5052144;28;20513;-78
2021/01/30 15:55:43;;;;;;;1.90;1.50;;;;;;;;;;5052273;28;20249;-78
2021/01/30 15:58:09;;;;;;;2.30;1.90;;;;;;;;;;5052092;28;20505;-79
2021/01/30 16:00:36;;;;;;;4.30;1.67;;;;;;;;;;5052551;28;20430;-79
2021/01/30 16:03:04;;;;;;;3.10;2.00;;;;;;;;;;5034548;28;20624;-79
2021/01/30 16:05:30;;;;;;;2.47;1.60;;;;;;;;;;5052508;28;20417;-77
2021/01/30 16:07:56;;;;;;;2.58;1.30;;;;;;;;;;5052391;28;20168;-77
2021/01/30 16:13:26;;;;;;;2.60;2.40;;;;;;;;;;5052568;28;20475;-79
2021/01/30 16:15:52;;;;;;;3.10;2.80;;;;;;;;;;5062477;28;20191;-77
2021/01/30 16:18:18;;;;;;;3.50;1.88;;;;;;;;;;5055085;28;20410;-78
2021/01/30 16:20:48;;;;;;;3.30;3.00;;;;;;;;;;5052393;28;20210;-77
2021/01/30 16:23:14;;;;;;;4.00;3.70;;;;;;;;;;5052609;28;20203;-78